Terminal Aerodrome Forecast
Issued by NWS

Home | Current Version | Previous Version | Text Only | Print | Product List | Glossary On
Versions: 1 2 3 4 5 6 7 8 9 10 11 12 13 14 15 16 17 18 19 20 21 22 23 24 25 26 27 28 29 30 31 32 33 34 35 36 37 38 39 40 41 42 43 44 45
000
FTUS43 KGRB 212300
TAFRHI
TAF
KRHI 212332Z 2200/2224 16009KT 3SM -SN BR SCT004 OVC010
      TEMPO 2200/2204 1SM -SN BR OVC004
     FM220400 16010KT 2SM BR OVC005
      TEMPO 2204/2208 1SM -FZDZSN BR OVC002
     FM221000 13008KT 2SM BR OVC003
     FM221600 13008KT 4SM BR OVC005=

USA.gov is the U.S. government's official web portal to all federal, state and local government web resources and services.